createdAt,value
2022-12-03T00:01:10.443Z,2.23
2022-12-03T00:04:13.357Z,2.42
2022-12-03T00:07:16.449Z,2.31
2022-12-03T00:10:19.463Z,2.60
2022-12-03T00:13:21.915Z,2.63
2022-12-03T00:16:24.934Z,2.62
2022-12-03T00:19:27.689Z,2.55
2022-12-03T00:22:31.076Z,2.27
2022-12-03T00:25:33.621Z,2.41
2022-12-03T00:28:36.570Z,2.18
2022-12-03T00:31:45.486Z,2.25
2022-12-03T00:34:49.809Z,2.43
2022-12-03T00:37:52.423Z,2.39
2022-12-03T00:40:55.234Z,2.41
2022-12-03T00:43:59.978Z,2.53
2022-12-03T00:47:02.810Z,2.45
2022-12-03T00:50:06.144Z,2.31
2022-12-03T00:53:09.113Z,2.30
2022-12-03T00:56:11.912Z,2.28
2022-12-03T00:59:14.983Z,2.36
2022-12-03T01:02:17.678Z,2.29
2022-12-03T01:05:20.894Z,2.26
2022-12-03T01:08:23.456Z,2.34
2022-12-03T01:11:38.366Z,2.09
2022-12-03T01:14:41.062Z,2.20
2022-12-03T01:17:46.124Z,2.17
2022-12-03T01:20:48.731Z,2.44
2022-12-03T01:23:52.817Z,2.49
2022-12-03T01:26:56.659Z,2.36
2022-12-03T01:29:59.588Z,2.46
2022-12-03T01:33:02.253Z,2.70
2022-12-03T01:36:05.327Z,2.53
2022-12-03T01:39:07.980Z,2.78
2022-12-03T01:42:24.111Z,2.74
2022-12-03T01:45:26.635Z,2.69
2022-12-03T01:48:41.655Z,2.48
2022-12-03T01:51:45.115Z,2.72
2022-12-03T01:54:54.962Z,2.70
2022-12-03T01:58:00.603Z,2.77
2022-12-03T02:01:13.295Z,2.60
2022-12-03T02:04:19.642Z,2.37
2022-12-03T02:07:31.373Z,2.49
2022-12-03T02:10:37.755Z,2.54
2022-12-03T02:13:41.176Z,2.45
2022-12-03T02:16:45.107Z,2.51
2022-12-03T02:19:48.835Z,2.42
2022-12-03T02:23:17.688Z,2.54
2022-12-03T02:26:20.952Z,2.69
2022-12-03T02:29:24.153Z,2.79
2022-12-03T02:32:27.141Z,2.85
2022-12-03T02:35:35.166Z,2.83
2022-12-03T02:38:38.532Z,2.63
2022-12-03T02:41:59.612Z,2.64
2022-12-03T02:45:14.239Z,2.80
2022-12-03T02:48:25.984Z,2.86
2022-12-03T02:51:30.870Z,2.77
2022-12-03T02:54:33.892Z,2.61
2022-12-03T02:57:39.078Z,2.54
2022-12-03T03:00:43.390Z,2.79
2022-12-03T03:03:48.129Z,2.78
2022-12-03T03:06:52.045Z,2.73
2022-12-03T03:09:55.838Z,2.85
2022-12-03T03:12:58.621Z,3.03
2022-12-03T03:16:06.479Z,3.00
2022-12-03T03:19:09.499Z,2.81
2022-12-03T03:22:19.061Z,3.03
2022-12-03T03:25:22.530Z,3.07
2022-12-03T03:28:26.981Z,2.89
2022-12-03T03:31:29.568Z,2.66
2022-12-03T03:34:33.233Z,2.75
2022-12-03T03:37:36.678Z,2.80
2022-12-03T03:40:40.397Z,2.79
2022-12-03T03:43:45.686Z,2.73
2022-12-03T03:46:48.878Z,2.66
2022-12-03T03:49:51.652Z,2.63
2022-12-03T03:52:55.990Z,2.63
2022-12-03T03:55:58.786Z,2.58
2022-12-03T03:59:03.070Z,2.58
2022-12-03T04:02:05.721Z,2.54
2022-12-03T04:05:16.792Z,2.20
2022-12-03T04:08:19.614Z,2.13
2022-12-03T04:11:40.944Z,2.37
2022-12-03T04:14:44.835Z,2.39
2022-12-03T04:18:07.634Z,2.23
2022-12-03T04:21:34.469Z,2.15
2022-12-03T04:24:37.406Z,2.07
2022-12-03T04:27:58.366Z,2.06
2022-12-03T04:31:21.236Z,2.05
2022-12-03T04:34:44.920Z,2.41
2022-12-03T04:37:47.689Z,2.35
2022-12-03T04:41:00.849Z,2.23
2022-12-03T04:44:22.602Z,1.91
2022-12-03T04:47:25.120Z,2.05
2022-12-03T04:50:28.032Z,2.01
2022-12-03T04:53:30.493Z,1.84
2022-12-03T04:56:33.366Z,2.01
2022-12-03T04:59:37.323Z,2.13
2022-12-03T05:02:40.661Z,2.12
2022-12-03T05:05:43.263Z,2.04
2022-12-03T05:08:46.622Z,1.99
2022-12-03T05:11:49.244Z,1.94
2022-12-03T05:14:52.315Z,2.00
2022-12-03T05:17:55.118Z,2.01
2022-12-03T05:20:58.110Z,1.83
2022-12-03T05:24:00.945Z,2.30
2022-12-03T05:27:03.892Z,2.22
2022-12-03T05:30:07.191Z,2.16
2022-12-03T05:33:11.282Z,2.19
2022-12-03T05:36:14.169Z,2.26
2022-12-03T05:39:17.011Z,2.36
2022-12-03T05:42:38.422Z,2.39
2022-12-03T05:45:43.198Z,2.52
2022-12-03T05:48:48.369Z,2.29
2022-12-03T05:51:55.212Z,2.43
2022-12-03T05:55:04.590Z,2.50
2022-12-03T05:58:07.762Z,2.31
2022-12-03T06:01:10.222Z,2.45
2022-12-03T06:04:15.479Z,2.27
2022-12-03T06:07:18.077Z,2.51
2022-12-03T06:10:23.476Z,2.42
2022-12-03T06:13:29.224Z,2.88
2022-12-03T06:16:32.235Z,2.62
2022-12-03T06:19:36.216Z,2.66
2022-12-03T06:22:39.161Z,2.52
2022-12-03T06:25:41.613Z,2.59
2022-12-03T06:28:47.690Z,2.51
2022-12-03T06:31:50.242Z,2.83
2022-12-03T06:34:53.376Z,3.02
2022-12-03T06:37:56.167Z,2.60
2022-12-03T06:40:59.320Z,2.61
2022-12-03T06:44:02.200Z,2.49
2022-12-03T06:47:05.032Z,2.44
2022-12-03T06:50:08.912Z,2.59
2022-12-03T06:53:11.789Z,2.51
2022-12-03T06:56:14.411Z,2.66
2022-12-03T06:59:18.521Z,2.79
2022-12-03T07:02:24.675Z,2.68
2022-12-03T07:05:28.752Z,3.05
2022-12-03T07:08:31.542Z,3.13
2022-12-03T07:11:40.553Z,3.16
2022-12-03T07:14:43.484Z,3.10
2022-12-03T07:17:46.650Z,3.01
2022-12-03T07:20:51.154Z,3.03
2022-12-03T07:23:55.627Z,2.92
2022-12-03T07:26:59.216Z,3.28
2022-12-03T07:30:02.452Z,3.29
2022-12-03T07:33:05.192Z,3.41
2022-12-03T07:36:09.283Z,3.38
2022-12-03T07:39:11.874Z,3.28
2022-12-03T07:42:14.951Z,3.17
2022-12-03T07:45:17.735Z,3.51
2022-12-03T07:48:20.753Z,3.72
2022-12-03T07:51:28.976Z,3.62
2022-12-03T07:54:37.104Z,3.56
2022-12-03T07:57:39.745Z,3.52
2022-12-03T08:00:42.707Z,3.51
2022-12-03T08:03:45.767Z,3.72
2022-12-03T08:06:48.930Z,3.57
2022-12-03T08:09:52.008Z,3.80
2022-12-03T08:12:59.190Z,3.51
2022-12-03T08:16:13.879Z,3.93
2022-12-03T08:19:18.033Z,4.65
2022-12-03T08:22:22.723Z,5.16
2022-12-03T08:25:28.875Z,5.56
2022-12-03T08:28:31.932Z,5.23
2022-12-03T08:31:34.969Z,4.88
2022-12-03T08:34:41.421Z,4.43
2022-12-03T08:37:43.923Z,4.73
2022-12-03T08:40:48.948Z,5.40
2022-12-03T08:43:51.787Z,5.40
2022-12-03T08:47:24.472Z,4.74
2022-12-03T08:50:27.292Z,5.11
2022-12-03T08:53:50.910Z,5.12
2022-12-03T08:56:53.891Z,4.89
2022-12-03T09:00:12.612Z,4.76
2022-12-03T09:03:19.025Z,5.69
2022-12-03T09:06:22.964Z,5.38
2022-12-03T09:09:26.369Z,6.25
2022-12-03T09:12:29.170Z,6.32
2022-12-03T09:15:31.701Z,7.30
2022-12-03T09:18:34.905Z,7.97
2022-12-03T09:21:37.939Z,8.99
2022-12-03T09:24:41.217Z,9.41
2022-12-03T09:27:43.860Z,8.52
2022-12-03T09:30:47.050Z,8.59
2022-12-03T09:33:51.981Z,8.50
2022-12-03T09:36:54.741Z,9.26
2022-12-03T09:39:58.590Z,8.37
2022-12-03T09:43:01.583Z,8.34
2022-12-03T09:46:05.688Z,8.44
2022-12-03T09:49:15.801Z,8.32
2022-12-03T09:52:26.128Z,8.07
2022-12-03T09:55:29.606Z,8.27
2022-12-03T09:58:35.045Z,9.01
2022-12-03T10:01:38.594Z,8.26
2022-12-03T10:04:41.577Z,10.16
2022-12-03T10:07:44.477Z,10.18
2022-12-03T10:10:51.965Z,9.00
2022-12-03T10:13:56.694Z,10.04
2022-12-03T10:17:00.176Z,9.10
2022-12-03T10:20:02.869Z,9.43
2022-12-03T10:23:08.159Z,8.91
2022-12-03T10:26:10.969Z,10.47
2022-12-03T10:29:18.571Z,10.36
2022-12-03T10:32:25.857Z,11.49
2022-12-03T10:35:41.230Z,11.62
2022-12-03T10:38:44.371Z,9.51
2022-12-03T10:41:47.766Z,10.80
2022-12-03T10:45:06.322Z,10.35
2022-12-03T10:48:21.100Z,11.22
2022-12-03T10:51:24.025Z,12.39
2022-12-03T10:54:28.465Z,11.32
2022-12-03T10:57:31.223Z,11.56
2022-12-03T11:00:35.200Z,9.60
2022-12-03T11:03:37.815Z,8.28
2022-12-03T11:06:41.237Z,7.89
2022-12-03T11:09:46.554Z,7.71
2022-12-03T11:13:27.958Z,8.17
2022-12-03T11:16:42.610Z,9.61
2022-12-03T11:19:47.850Z,10.50
2022-12-03T11:22:55.228Z,9.81
2022-12-03T11:25:58.143Z,10.10
2022-12-03T11:29:00.722Z,10.33
2022-12-03T11:32:05.684Z,9.17
2022-12-03T11:35:24.191Z,10.13
2022-12-03T11:38:47.343Z,10.62
2022-12-03T11:42:27.327Z,9.83
2022-12-03T11:45:33.645Z,10.07
2022-12-03T11:48:45.067Z,10.05
2022-12-03T11:51:48.939Z,9.34
2022-12-03T11:55:02.856Z,9.30
2022-12-03T11:58:27.323Z,9.26
2022-12-03T12:01:41.280Z,7.86
2022-12-03T12:04:47.128Z,8.58
2022-12-03T12:07:50.324Z,8.66
2022-12-03T12:10:56.620Z,8.40
2022-12-03T12:14:04.800Z,9.51
2022-12-03T12:17:29.431Z,9.22
2022-12-03T12:20:32.072Z,9.74
2022-12-03T12:23:36.367Z,9.56
2022-12-03T12:26:38.771Z,8.71
2022-12-03T12:29:43.622Z,9.21
2022-12-03T12:32:47.633Z,8.52
2022-12-03T12:35:51.323Z,7.69
2022-12-03T12:38:53.923Z,7.95
2022-12-03T12:41:57.679Z,7.31
2022-12-03T12:45:26.086Z,7.34
2022-12-03T12:48:35.245Z,7.22
2022-12-03T12:51:44.060Z,7.42
2022-12-03T12:54:47.133Z,7.35
2022-12-03T12:57:49.937Z,6.91
2022-12-03T13:01:07.977Z,6.88
2022-12-03T13:04:19.482Z,6.93
2022-12-03T13:07:22.690Z,6.70
2022-12-03T13:10:33.101Z,7.04
2022-12-03T13:13:44.037Z,6.80
2022-12-03T13:16:49.108Z,6.82
2022-12-03T13:20:05.197Z,6.83
2022-12-03T13:23:26.343Z,6.85
2022-12-03T13:26:38.964Z,6.66
2022-12-03T13:29:41.939Z,6.83
2022-12-03T13:32:44.850Z,6.92
2022-12-03T13:35:47.961Z,6.70
2022-12-03T13:38:51.102Z,6.90
2022-12-03T13:42:13.654Z,6.91
2022-12-03T13:45:16.401Z,6.53
2022-12-03T13:48:25.722Z,6.83
2022-12-03T13:51:35.495Z,6.62
2022-12-03T13:54:39.451Z,6.88
2022-12-03T13:57:42.512Z,6.94
2022-12-03T14:00:45.999Z,6.85
2022-12-03T14:03:51.550Z,6.84
2022-12-03T14:06:56.593Z,6.84
2022-12-03T14:09:59.443Z,6.79
2022-12-03T14:13:02.184Z,6.85
2022-12-03T14:16:05.519Z,6.68
2022-12-03T14:19:09.983Z,6.53
2022-12-03T14:22:13.150Z,6.65
2022-12-03T14:25:16.022Z,6.40
2022-12-03T14:28:18.950Z,6.40
2022-12-03T14:31:21.709Z,6.45
2022-12-03T14:34:24.781Z,6.21
2022-12-03T14:37:27.287Z,6.25
2022-12-03T14:40:30.149Z,6.35
2022-12-03T14:43:33.104Z,6.37
2022-12-03T14:46:36.570Z,6.37
2022-12-03T14:49:39.561Z,6.30
2022-12-03T14:52:43.375Z,6.23
2022-12-03T14:55:48.136Z,6.13
2022-12-03T14:58:51.495Z,6.18
2022-12-03T15:01:57.980Z,6.25
2022-12-03T15:05:01.965Z,6.23
2022-12-03T15:08:11.183Z,6.12
2022-12-03T15:11:22.657Z,6.03
2022-12-03T15:14:25.485Z,5.94
2022-12-03T15:17:31.986Z,6.04
2022-12-03T15:20:35.652Z,6.01
2022-12-03T15:23:38.885Z,5.97
2022-12-03T15:26:41.486Z,5.93
2022-12-03T15:29:44.297Z,5.82
2022-12-03T15:32:47.661Z,5.87
2022-12-03T15:35:50.826Z,5.74
2022-12-03T15:38:53.631Z,5.60
2022-12-03T15:41:56.804Z,5.44
2022-12-03T15:44:59.357Z,5.54
2022-12-03T15:48:03.107Z,5.59
2022-12-03T15:51:07.089Z,5.42
2022-12-03T15:54:12.387Z,5.27
2022-12-03T15:57:15.729Z,5.15
2022-12-03T16:00:21.456Z,5.25
2022-12-03T16:03:24.479Z,4.99
2022-12-03T16:06:29.656Z,5.12
2022-12-03T16:09:35.941Z,5.06
2022-12-03T16:12:38.572Z,5.01
2022-12-03T16:15:41.941Z,5.03
2022-12-03T16:18:45.101Z,4.88
2022-12-03T16:21:47.972Z,4.78
2022-12-03T16:24:50.743Z,4.89
2022-12-03T16:27:53.528Z,4.87
2022-12-03T16:30:56.090Z,4.77
2022-12-03T16:33:59.871Z,4.77
2022-12-03T16:37:05.086Z,4.75
2022-12-03T16:40:20.088Z,4.87
2022-12-03T16:43:23.151Z,4.75
2022-12-03T16:46:30.247Z,4.81
2022-12-03T16:49:33.177Z,4.75
2022-12-03T16:52:36.112Z,4.84
2022-12-03T16:55:39.012Z,4.84
2022-12-03T16:58:42.916Z,4.71
2022-12-03T17:01:45.514Z,4.77
2022-12-03T17:04:48.824Z,4.73
2022-12-03T17:07:51.664Z,4.61
2022-12-03T17:10:54.594Z,4.64
2022-12-03T17:13:57.431Z,4.49
2022-12-03T17:17:00.687Z,4.65
2022-12-03T17:20:06.367Z,4.63
2022-12-03T17:23:10.477Z,4.62
2022-12-03T17:26:13.024Z,4.58
2022-12-03T17:29:16.173Z,4.60
2022-12-03T17:32:18.759Z,4.62
2022-12-03T17:35:22.095Z,4.63
2022-12-03T17:38:33.990Z,4.63
2022-12-03T17:41:47.358Z,4.66
2022-12-03T17:44:51.186Z,4.58
2022-12-03T17:47:54.168Z,4.62
2022-12-03T17:51:01.529Z,4.61
2022-12-03T17:54:05.101Z,4.65
2022-12-03T17:57:07.890Z,4.66
2022-12-03T18:00:14.970Z,4.69
2022-12-03T18:03:18.287Z,4.65
2022-12-03T18:06:23.892Z,4.60
2022-12-03T18:09:28.212Z,4.60
2022-12-03T18:12:30.917Z,4.61
2022-12-03T18:15:36.872Z,4.58
2022-12-03T18:18:55.024Z,4.59
2022-12-03T18:22:02.610Z,4.56
2022-12-03T18:25:07.388Z,4.59
2022-12-03T18:28:10.964Z,4.56
2022-12-03T18:31:15.508Z,4.43
2022-12-03T18:34:19.506Z,4.47
2022-12-03T18:37:27.066Z,4.35
2022-12-03T18:40:32.432Z,4.36
2022-12-03T18:43:35.363Z,4.17
2022-12-03T18:46:53.002Z,4.15
2022-12-03T18:49:59.674Z,4.09
2022-12-03T18:53:03.298Z,4.12
2022-12-03T18:56:07.977Z,3.96
2022-12-03T18:59:11.395Z,3.88
2022-12-03T19:02:32.477Z,4.10
2022-12-03T19:05:40.746Z,4.00
2022-12-03T19:08:45.128Z,4.11
2022-12-03T19:11:48.876Z,4.20
2022-12-03T19:14:51.862Z,3.95
2022-12-03T19:18:00.861Z,4.12
2022-12-03T19:21:09.068Z,4.12
2022-12-03T19:24:27.532Z,4.02
2022-12-03T19:27:32.148Z,3.87
2022-12-03T19:30:38.050Z,3.93
2022-12-03T19:33:42.640Z,4.01
2022-12-03T19:36:47.503Z,4.01
2022-12-03T19:39:54.215Z,3.93
2022-12-03T19:42:59.927Z,3.98
2022-12-03T19:46:12.355Z,3.92
2022-12-03T19:49:18.702Z,4.00
2022-12-03T19:52:25.463Z,4.03
2022-12-03T19:55:28.649Z,4.06
2022-12-03T19:58:31.833Z,4.03
2022-12-03T20:01:36.568Z,4.07
2022-12-03T20:04:39.846Z,3.97
2022-12-03T20:07:42.897Z,4.09
2022-12-03T20:10:46.511Z,4.08
2022-12-03T20:13:54.097Z,4.06
2022-12-03T20:16:57.316Z,4.12
2022-12-03T20:20:00.182Z,4.06
2022-12-03T20:23:03.895Z,4.12
2022-12-03T20:26:09.107Z,4.04
2022-12-03T20:29:12.550Z,4.13
2022-12-03T20:32:15.376Z,4.14
2022-12-03T20:35:18.424Z,4.23
2022-12-03T20:38:22.497Z,4.23
2022-12-03T20:41:25.879Z,4.10
2022-12-03T20:44:28.627Z,4.14
2022-12-03T20:47:32.578Z,4.04
2022-12-03T20:50:39.851Z,4.00
2022-12-03T20:53:43.733Z,4.18
2022-12-03T20:56:47.442Z,4.12
2022-12-03T20:59:54.721Z,4.00
2022-12-03T21:02:57.796Z,3.91
2022-12-03T21:06:01.710Z,4.09
2022-12-03T21:09:08.702Z,4.03
2022-12-03T21:12:11.993Z,4.14
2022-12-03T21:15:14.754Z,4.09
2022-12-03T21:18:17.821Z,4.12
2022-12-03T21:21:20.717Z,4.18
2022-12-03T21:24:23.716Z,4.24
2022-12-03T21:27:26.583Z,4.32
2022-12-03T21:30:36.633Z,4.18
2022-12-03T21:33:39.733Z,4.25
2022-12-03T21:36:43.291Z,4.24
2022-12-03T21:39:45.786Z,4.31
2022-12-03T21:42:48.940Z,4.27
2022-12-03T21:45:52.501Z,4.43
2022-12-03T21:48:56.019Z,4.43
2022-12-03T21:51:59.821Z,4.39
2022-12-03T21:55:02.792Z,4.45
2022-12-03T21:58:05.357Z,4.42
2022-12-03T22:01:18.351Z,4.37
2022-12-03T22:04:21.629Z,4.39
2022-12-03T22:07:24.156Z,4.35
2022-12-03T22:10:27.749Z,4.25
2022-12-03T22:13:30.285Z,4.29
2022-12-03T22:16:34.332Z,4.39
2022-12-03T22:19:36.968Z,4.41
2022-12-03T22:22:40.019Z,4.30
2022-12-03T22:25:42.695Z,4.31
2022-12-03T22:28:47.697Z,4.29
2022-12-03T22:31:50.537Z,4.38
2022-12-03T22:34:54.334Z,4.26
2022-12-03T22:37:56.978Z,4.35
2022-12-03T22:41:00.133Z,4.31
2022-12-03T22:44:02.943Z,4.28
2022-12-03T22:47:06.242Z,4.36
2022-12-03T22:50:09.166Z,4.38
2022-12-03T22:53:12.796Z,4.29
2022-12-03T22:56:16.057Z,4.24
2022-12-03T22:59:19.022Z,4.34
2022-12-03T23:02:21.611Z,4.36
2022-12-03T23:05:24.548Z,4.23
2022-12-03T23:08:29.897Z,4.24
2022-12-03T23:11:34.258Z,4.36
2022-12-03T23:14:37.201Z,4.29
2022-12-03T23:17:40.207Z,4.23
2022-12-03T23:20:45.074Z,4.12
2022-12-03T23:23:48.006Z,4.13
2022-12-03T23:26:50.647Z,4.08
2022-12-03T23:29:53.703Z,4.07
2022-12-03T23:32:56.591Z,4.01
2022-12-03T23:36:00.136Z,3.91
2022-12-03T23:39:03.091Z,3.86
2022-12-03T23:42:05.944Z,3.81
2022-12-03T23:45:09.404Z,3.82
2022-12-03T23:48:13.280Z,3.91
2022-12-03T23:51:21.781Z,3.72
2022-12-03T23:54:24.592Z,3.68
2022-12-03T23:57:27.409Z,3.74
